Faisalabad Weather



Faisalabad's Current Weather

Temprature 19.774o clear sky

clear sky

Rain: 0 %

Min Temprature19.774o
Max Temprature19.774o
Humidity68
Wind Speed1.41 m/h
Sun Rise06:41:20
Sun Set18:01:04
Current Time: 23-Feb-2019 15:32:06
Lat/Lon: 31.42, 73.09




Faisalabad's Geo Location




Faisalabad's Weather Forecast

Time Overall Temp Min Temp Max Temp Humidity Wind Speed Rain
23-Feb-2019 (Sat)
17:00:00 clear sky 19.060 19.060 19.774 68 1.41 m/h 0 %
20:00:00 clear sky 13.800 13.800 14.333 68 1.57 m/h 0 %
23:00:00 clear sky 11.610 11.610 11.965 77 1.62 m/h 0 %
24-Feb-2019 (Sun)
02:00:00 few clouds 10.830 10.830 11.010 82 1.26 m/h 0 %
05:00:00 clear sky 10.392 10.392 10.392 84 1.21 m/h 0 %
08:00:00 clear sky 11.828 11.828 11.828 81 0.91 m/h 0 %
11:00:00 clear sky 19.299 19.299 19.299 92 1.96 m/h 0 %
14:00:00 few clouds 21.256 21.256 21.256 82 1.97 m/h 0 %
17:00:00 clear sky 20.421 20.421 20.421 67 1.55 m/h 0 %
20:00:00 scattered clouds 15.418 15.418 15.418 70 1.66 m/h 0 %
23:00:00 few clouds 13.011 13.011 13.011 83 2.66 m/h 0 %
25-Feb-2019 (Mon)
02:00:00 light rain 11.205 11.205 11.205 92 2.32 m/h 94 %
05:00:00 light rain 10.677 10.677 10.677 96 3.76 m/h 217 %
08:00:00 light rain 11.295 11.295 11.295 97 3.97 m/h 230 %
11:00:00 light rain 13.997 13.997 13.997 100 2.51 m/h 229 %
14:00:00 light rain 14.798 14.798 14.798 100 2.87 m/h 161 %
17:00:00 light rain 14.712 14.712 14.712 100 2.51 m/h 45 %
20:00:00 clear sky 11.798 11.798 11.798 94 2.81 m/h 0 %
23:00:00 light rain 10.267 10.267 10.267 96 3.71 m/h 1 %
26-Feb-2019 (Tue)
02:00:00 light rain 10.126 10.126 10.126 97 3.46 m/h 4 %
05:00:00 light rain 10.172 10.172 10.172 98 3.26 m/h 6 %
08:00:00 light rain 10.807 10.807 10.807 98 3.22 m/h 8 %
11:00:00 light rain 13.067 13.067 13.067 100 2.37 m/h 6 %
14:00:00 light rain 14.421 14.421 14.421 100 3.31 m/h 5 %
17:00:00 light rain 14.189 14.189 14.189 97 2.81 m/h 21 %
20:00:00 light rain 12.311 12.311 12.311 95 2.27 m/h 3 %
23:00:00 light rain 12.298 12.298 12.298 97 1.37 m/h 11 %
27-Feb-2019 (Wed)
02:00:00 light rain 11.281 11.281 11.281 99 1.61 m/h 7 %
05:00:00 light rain 10.519 10.519 10.519 100 1.3 m/h 3 %
08:00:00 light rain 10.615 10.615 10.615 96 1.52 m/h 2 %
11:00:00 clear sky 14.995 14.995 14.995 100 2.06 m/h 0 %
14:00:00 clear sky 16.886 16.886 16.886 96 2.05 m/h 0 %
17:00:00 clear sky 17.023 17.023 17.023 73 2.51 m/h 0 %
20:00:00 few clouds 13.292 13.292 13.292 75 3.47 m/h 0 %
23:00:00 broken clouds 11.691 11.691 11.691 88 3.57 m/h 0 %
28-Feb-2019 (Thu)
02:00:00 broken clouds 10.541 10.541 10.541 93 1.61 m/h 0 %
05:00:00 broken clouds 10.163 10.163 10.163 93 1.76 m/h 0 %
08:00:00 broken clouds 11.040 11.040 11.040 90 2.96 m/h 0 %
11:00:00 broken clouds 14.222 14.222 14.222 97 2.36 m/h 0 %
14:00:00 overcast clouds 15.779 15.779 15.779 85 3.97 m/h 0 %


Faisalabad's Tourist Spots

Parks and Zoos in Faisalabad

Famous Cities (60)